Decoded Metar for LIQN (RIETI in ITALY) (IATA:N/A) | Meteo·Mobile Aviation Weather
aviador You're here:

LIQN Decoded Metar

RIETI in ITALY
Report Time2019-01-20 09:50:00
UTC Time2019-01-20 10:52:24
Flight Rules vfr VFR
WindVRB at 03 kt
Visibility9999 m
Phenomena:N/A
Clouds:N/A
Expected CloudBase > 400 ft AGL from Temp-Dew spread
CeilingNone
Temp04°C (ISA -8)
Dew Point03°C (93% RH)
AAT1.4°C
QNH1012 hPa
Density Alt397 ft
Elevation1,276 ft
Report Wrong Elevation
Raw Report
LIQN 200950Z VRB03KT CAVOK 04/03 Q1012=

Extra information for LIQN:More info

Metar Taf Metar & Taf Last 4 Metars F.Rules Stats Wind Profile Meteogram Temp Stats Airport Information Weather charts Add Link Nearby VenuesMetar ALERT Operation Metar Decoded Social comments